createdAt,value
2018-02-16T00:01:23.807Z,8.13
2018-02-16T00:03:51.270Z,8.53
2018-02-16T00:06:18.721Z,7.07
2018-02-16T00:08:46.186Z,8.20
2018-02-16T00:11:13.654Z,7.67
2018-02-16T00:13:41.111Z,7.87
2018-02-16T00:16:09.360Z,8.23
2018-02-16T00:18:36.815Z,8.23
2018-02-16T00:21:04.277Z,7.97
2018-02-16T00:23:31.751Z,7.67
2018-02-16T00:25:59.215Z,6.60
2018-02-16T00:28:26.677Z,6.27
2018-02-16T00:30:54.130Z,6.23
2018-02-16T00:33:21.592Z,7.70
2018-02-16T00:35:49.059Z,8.30
2018-02-16T00:38:17.302Z,12.87
2018-02-16T00:40:44.779Z,7.33
2018-02-16T00:43:12.235Z,7.33
2018-02-16T00:45:39.698Z,8.47
2018-02-16T00:48:07.418Z,8.07
2018-02-16T00:50:34.878Z,7.40
2018-02-16T00:53:02.348Z,8.30
2018-02-16T00:55:29.822Z,10.43
2018-02-16T00:57:57.306Z,10.47
2018-02-16T01:00:24.770Z,14.80
2018-02-16T01:02:53.009Z,11.83
2018-02-16T01:05:20.481Z,10.20
2018-02-16T01:07:47.943Z,8.33
2018-02-16T01:10:15.407Z,7.67
2018-02-16T01:12:42.866Z,7.73
2018-02-16T01:15:10.328Z,8.03
2018-02-16T01:17:37.796Z,7.33
2018-02-16T01:20:06.022Z,9.20
2018-02-16T01:22:33.483Z,7.87
2018-02-16T01:25:00.962Z,8.27
2018-02-16T01:27:28.417Z,8.00
2018-02-16T01:29:55.882Z,7.97
2018-02-16T01:32:24.116Z,7.13
2018-02-16T01:34:51.585Z,8.87
2018-02-16T01:37:19.076Z,7.13
2018-02-16T01:39:46.537Z,8.20
2018-02-16T01:42:14.770Z,8.30
2018-02-16T01:44:42.213Z,8.57
2018-02-16T01:47:09.678Z,8.60
2018-02-16T01:49:48.925Z,10.33
2018-02-16T01:52:16.399Z,17.03
2018-02-16T01:54:43.862Z,17.87
2018-02-16T01:57:11.331Z,10.27
2018-02-16T01:59:39.557Z,9.77
2018-02-16T02:02:07.020Z,11.43
2018-02-16T02:04:34.477Z,14.10
2018-02-16T02:07:01.938Z,12.47
2018-02-16T02:09:29.406Z,12.70
2018-02-16T02:11:56.870Z,10.60
2018-02-16T02:14:24.335Z,13.00
2018-02-16T02:16:51.797Z,14.67
2018-02-16T02:19:19.274Z,14.20
2018-02-16T02:21:47.710Z,14.43
2018-02-16T02:24:15.177Z,16.47
2018-02-16T02:26:42.646Z,14.87
2018-02-16T02:29:10.113Z,12.97
2018-02-16T02:31:38.362Z,13.53
2018-02-16T02:34:05.833Z,14.27
2018-02-16T02:36:33.292Z,15.07
2018-02-16T02:39:00.757Z,13.03
2018-02-16T02:41:28.216Z,12.77
2018-02-16T02:43:55.682Z,14.20
2018-02-16T02:46:23.922Z,13.10
2018-02-16T02:48:51.401Z,12.27
2018-02-16T02:51:18.869Z,11.70
2018-02-16T02:53:47.116Z,11.13
2018-02-16T02:56:14.571Z,12.07
2018-02-16T02:58:42.047Z,12.30
2018-02-16T03:01:10.298Z,12.20
2018-02-16T03:03:37.789Z,12.10
2018-02-16T03:06:06.035Z,12.83
2018-02-16T03:08:33.499Z,12.30
2018-02-16T03:11:00.954Z,14.10
2018-02-16T03:13:28.426Z,13.00
2018-02-16T03:15:55.893Z,14.10
2018-02-16T03:18:23.354Z,13.13
2018-02-16T03:20:51.600Z,13.70
2018-02-16T03:23:19.086Z,13.57
2018-02-16T03:25:47.325Z,14.23
2018-02-16T03:28:14.802Z,12.90
2018-02-16T03:30:43.051Z,13.47
2018-02-16T03:33:10.557Z,13.80
2018-02-16T03:35:38.819Z,13.67
2018-02-16T03:38:07.068Z,12.20
2018-02-16T03:40:34.522Z,13.33
2018-02-16T03:43:02.010Z,12.13
2018-02-16T03:45:29.477Z,11.87
2018-02-16T03:47:57.706Z,11.77
2018-02-16T03:50:25.165Z,12.10
2018-02-16T03:52:52.630Z,11.50
2018-02-16T03:55:20.119Z,12.27
2018-02-16T03:57:47.604Z,11.87
2018-02-16T04:00:15.075Z,11.27
2018-02-16T04:02:42.538Z,11.60
2018-02-16T04:05:10.011Z,11.80
2018-02-16T04:07:37.478Z,10.97
2018-02-16T04:10:04.946Z,11.83
2018-02-16T04:12:32.409Z,11.13
2018-02-16T04:14:59.885Z,10.87
2018-02-16T04:17:28.107Z,11.00
2018-02-16T04:19:55.582Z,10.93
2018-02-16T04:22:23.056Z,11.70
2018-02-16T04:24:50.509Z,11.47
2018-02-16T04:27:17.974Z,11.60
2018-02-16T04:29:45.442Z,11.37
2018-02-16T04:32:13.670Z,11.30
2018-02-16T04:34:41.138Z,12.43
2018-02-16T04:37:08.602Z,12.40
2018-02-16T04:39:36.061Z,11.60
2018-02-16T04:42:03.529Z,12.50
2018-02-16T04:44:31.005Z,12.90
2018-02-16T04:46:59.230Z,12.00
2018-02-16T04:49:26.698Z,11.97
2018-02-16T04:51:54.166Z,12.23
2018-02-16T04:54:21.638Z,13.23
2018-02-16T04:56:49.109Z,13.00
2018-02-16T04:59:17.329Z,13.23
2018-02-16T05:01:44.810Z,14.20
2018-02-16T05:04:12.266Z,12.90
2018-02-16T05:06:39.731Z,14.57
2018-02-16T05:09:07.199Z,13.67
2018-02-16T05:11:34.662Z,13.77
2018-02-16T05:14:02.370Z,14.60
2018-02-16T05:16:29.834Z,14.90
2018-02-16T05:18:57.293Z,15.47
2018-02-16T05:21:24.766Z,14.50
2018-02-16T05:23:52.227Z,16.77
2018-02-16T05:26:19.681Z,14.67
2018-02-16T05:28:47.150Z,13.77
2018-02-16T05:31:14.606Z,14.50
2018-02-16T05:33:42.110Z,13.90
2018-02-16T05:36:09.571Z,13.57
2018-02-16T05:38:37.054Z,13.20
2018-02-16T05:41:04.517Z,13.90
2018-02-16T05:43:31.970Z,13.40
2018-02-16T05:45:59.443Z,13.87
2018-02-16T05:48:26.911Z,13.07
2018-02-16T05:50:54.396Z,13.00
2018-02-16T05:53:22.646Z,13.43
2018-02-16T05:55:50.106Z,14.13
2018-02-16T05:58:17.578Z,11.73
2018-02-16T06:00:45.809Z,11.40
2018-02-16T06:03:13.290Z,11.73
2018-02-16T06:05:40.758Z,12.93
2018-02-16T06:08:08.222Z,10.80
2018-02-16T06:10:35.695Z,11.30
2018-02-16T06:13:03.911Z,13.23
2018-02-16T06:15:31.385Z,10.67
2018-02-16T06:17:58.850Z,11.23
2018-02-16T06:20:26.317Z,12.13
2018-02-16T06:22:53.786Z,11.97
2018-02-16T06:25:21.243Z,11.93
2018-02-16T06:27:48.710Z,12.20
2018-02-16T06:30:16.948Z,11.07
2018-02-16T06:32:44.417Z,10.87
2018-02-16T06:35:11.879Z,11.27
2018-02-16T06:37:39.397Z,10.63
2018-02-16T06:40:07.589Z,9.97
2018-02-16T06:42:35.049Z,10.53
2018-02-16T06:45:02.521Z,10.13
2018-02-16T06:47:30.003Z,9.47
2018-02-16T06:49:58.239Z,8.97
2018-02-16T06:52:25.695Z,9.80
2018-02-16T06:54:53.150Z,10.17
2018-02-16T06:57:20.626Z,11.43
2018-02-16T06:59:48.084Z,10.50
2018-02-16T07:02:15.547Z,9.00
2018-02-16T07:04:43.010Z,8.77
2018-02-16T07:07:10.474Z,7.70
2018-02-16T07:09:38.707Z,9.10
2018-02-16T07:12:06.211Z,8.87
2018-02-16T07:14:33.648Z,8.30
2018-02-16T07:17:01.143Z,6.87
2018-02-16T07:19:28.567Z,7.47
2018-02-16T07:21:56.030Z,6.53
2018-02-16T07:24:23.486Z,6.70
2018-02-16T07:26:50.950Z,6.07
2018-02-16T07:29:18.413Z,6.27
2018-02-16T07:31:46.638Z,5.90
2018-02-16T07:34:14.110Z,5.93
2018-02-16T07:36:42.341Z,6.03
2018-02-16T07:39:09.802Z,4.60
2018-02-16T07:41:37.257Z,4.37
2018-02-16T07:44:04.719Z,4.53
2018-02-16T07:46:32.186Z,4.57
2018-02-16T07:48:59.646Z,5.10
2018-02-16T07:51:27.111Z,4.47
2018-02-16T07:53:54.567Z,5.40
2018-02-16T07:56:22.039Z,6.40
2018-02-16T07:58:49.497Z,6.67
2018-02-16T08:01:16.958Z,6.90
2018-02-16T08:03:44.426Z,6.17
2018-02-16T08:06:11.881Z,6.17
2018-02-16T08:08:39.353Z,6.23
2018-02-16T08:11:07.595Z,6.63
2018-02-16T08:13:35.109Z,5.17
2018-02-16T08:16:02.593Z,4.67
2018-02-16T08:18:30.050Z,4.83
2018-02-16T08:20:57.514Z,4.20
2018-02-16T08:23:24.993Z,4.03
2018-02-16T08:25:52.464Z,3.90
2018-02-16T08:28:19.925Z,4.83
2018-02-16T08:30:47.400Z,4.30
2018-02-16T08:33:15.682Z,3.90
2018-02-16T08:35:43.943Z,3.47
2018-02-16T08:38:12.173Z,3.03
2018-02-16T08:40:39.634Z,3.00
2018-02-16T08:43:07.097Z,3.43
2018-02-16T08:45:34.561Z,3.43
2018-02-16T08:48:02.027Z,3.77
2018-02-16T08:50:29.477Z,4.00
2018-02-16T08:52:56.937Z,3.40
2018-02-16T08:55:24.393Z,2.90
2018-02-16T08:57:51.858Z,3.07
2018-02-16T09:00:19.318Z,3.43
2018-02-16T09:02:46.820Z,2.90
2018-02-16T09:05:14.293Z,2.63
2018-02-16T09:07:41.754Z,2.83
2018-02-16T09:10:09.235Z,2.50
2018-02-16T09:12:36.714Z,1.80
2018-02-16T09:15:04.186Z,1.50
2018-02-16T09:17:31.649Z,1.93
2018-02-16T09:19:59.113Z,2.33
2018-02-16T09:22:26.589Z,2.47
2018-02-16T09:24:54.055Z,2.60
2018-02-16T09:27:21.517Z,2.10
2018-02-16T09:29:48.981Z,2.30
2018-02-16T09:32:16.463Z,2.60
2018-02-16T09:34:43.927Z,2.40
2018-02-16T09:37:11.853Z,2.90
2018-02-16T09:39:39.877Z,2.50
2018-02-16T09:42:08.137Z,2.70
2018-02-16T09:44:35.594Z,2.80
2018-02-16T09:47:03.310Z,2.97
2018-02-16T09:49:30.770Z,2.80
2018-02-16T09:51:58.229Z,2.33
2018-02-16T09:54:25.694Z,2.77
2018-02-16T09:56:53.152Z,2.50
2018-02-16T09:59:20.625Z,3.27
2018-02-16T10:01:48.082Z,3.40
2018-02-16T10:04:15.550Z,3.70
2018-02-16T10:06:43.014Z,3.17
2018-02-16T10:09:10.466Z,3.57
2018-02-16T10:11:37.935Z,3.10
2018-02-16T10:14:06.183Z,3.07
2018-02-16T10:16:33.666Z,3.63
2018-02-16T10:19:01.129Z,2.80
2018-02-16T10:21:28.600Z,2.97
2018-02-16T10:23:56.842Z,2.60
2018-02-16T10:26:24.302Z,3.30
2018-02-16T10:28:51.775Z,2.90
2018-02-16T10:31:19.226Z,3.13
2018-02-16T10:33:46.685Z,2.83
2018-02-16T10:36:14.176Z,3.30
2018-02-16T10:38:42.378Z,2.83
2018-02-16T10:41:09.844Z,2.90
2018-02-16T10:43:37.304Z,2.50
2018-02-16T10:46:04.765Z,2.23
2018-02-16T10:48:32.232Z,1.80
2018-02-16T10:50:59.719Z,1.63
2018-02-16T10:53:27.945Z,2.03
2018-02-16T10:55:55.404Z,2.10
2018-02-16T10:58:22.865Z,1.90
2018-02-16T11:00:55.963Z,1.90
2018-02-16T11:03:29.076Z,1.70
2018-02-16T11:05:57.332Z,1.83
2018-02-16T11:08:30.554Z,2.17
2018-02-16T11:10:58.850Z,4.33
2018-02-16T11:13:26.310Z,12.40
2018-02-16T11:15:53.790Z,36.43
2018-02-16T11:18:21.265Z,39.67
2018-02-16T11:20:48.738Z,5.90
2018-02-16T11:23:16.193Z,2.20
2018-02-16T11:25:43.666Z,14.27
2018-02-16T11:28:11.910Z,2.10
2018-02-16T11:30:39.383Z,38.07
2018-02-16T11:33:06.855Z,29.57
2018-02-16T11:35:35.082Z,35.93
2018-02-16T11:38:02.550Z,41.77
2018-02-16T11:40:30.024Z,84.60
2018-02-16T11:42:57.487Z,14.17
2018-02-16T11:45:24.984Z,7.00
2018-02-16T11:47:53.181Z,6.77
2018-02-16T11:50:20.650Z,9.80
2018-02-16T11:52:48.117Z,11.03
2018-02-16T11:55:15.573Z,4.13
2018-02-16T11:57:43.038Z,2.40
2018-02-16T12:00:10.491Z,2.50
2018-02-16T12:02:37.953Z,3.10
2018-02-16T12:05:05.413Z,2.40
2018-02-16T12:07:32.869Z,2.30
2018-02-16T12:10:00.326Z,2.47
2018-02-16T12:12:27.777Z,3.47
2018-02-16T12:14:55.250Z,2.17
2018-02-16T12:17:22.706Z,2.40
2018-02-16T12:19:50.161Z,2.13
2018-02-16T12:22:17.628Z,2.60
2018-02-16T12:24:45.869Z,3.20
2018-02-16T12:27:13.331Z,3.10
2018-02-16T12:29:41.594Z,2.67
2018-02-16T12:32:09.074Z,3.10
2018-02-16T12:34:36.525Z,3.23
2018-02-16T12:37:03.992Z,2.90
2018-02-16T12:39:31.446Z,3.43
2018-02-16T12:41:58.906Z,5.77
2018-02-16T12:44:26.367Z,4.20
2018-02-16T12:46:53.839Z,5.40
2018-02-16T12:49:21.302Z,3.13
2018-02-16T12:51:48.754Z,2.53
2018-02-16T12:54:16.215Z,3.00
2018-02-16T12:56:43.670Z,5.57
2018-02-16T12:59:11.143Z,6.97
2018-02-16T13:01:39.369Z,6.90
2018-02-16T13:04:06.830Z,5.30
2018-02-16T13:06:34.315Z,40.63
2018-02-16T13:09:01.781Z,10.33
2018-02-16T13:11:30.011Z,6.30
2018-02-16T13:13:57.501Z,12.37
2018-02-16T13:16:24.954Z,8.97
2018-02-16T13:18:53.197Z,2.83
2018-02-16T13:21:20.651Z,3.10
2018-02-16T13:23:48.111Z,3.30
2018-02-16T13:26:15.577Z,3.50
2018-02-16T13:28:43.039Z,4.13
2018-02-16T13:31:10.498Z,3.27
2018-02-16T13:33:37.949Z,3.30
2018-02-16T13:36:05.413Z,3.63
2018-02-16T13:38:32.874Z,3.17
2018-02-16T13:41:00.339Z,8.93
2018-02-16T13:43:27.829Z,4.63
2018-02-16T13:45:56.051Z,3.17
2018-02-16T13:48:23.509Z,4.80
2018-02-16T13:50:50.980Z,5.67
2018-02-16T13:53:18.458Z,6.30
2018-02-16T13:55:45.927Z,8.60
2018-02-16T13:58:13.411Z,6.03
2018-02-16T14:00:40.885Z,2.97
2018-02-16T14:03:08.365Z,4.60
2018-02-16T14:05:35.831Z,5.90
2018-02-16T14:08:03.289Z,5.03
2018-02-16T14:10:30.748Z,3.00
2018-02-16T14:12:59.173Z,2.57
2018-02-16T14:15:26.642Z,3.93
2018-02-16T14:17:54.110Z,2.80
2018-02-16T14:20:21.569Z,3.47
2018-02-16T14:22:49.017Z,3.83
2018-02-16T14:25:16.774Z,3.40
2018-02-16T14:27:44.229Z,3.23
2018-02-16T14:30:11.705Z,3.77
2018-02-16T14:32:39.154Z,3.90
2018-02-16T14:35:06.618Z,3.53
2018-02-16T14:37:34.076Z,3.90
2018-02-16T14:40:01.540Z,4.50
2018-02-16T14:42:29.770Z,4.33
2018-02-16T14:44:57.226Z,4.60
2018-02-16T14:47:24.696Z,4.87
2018-02-16T14:49:52.169Z,5.93
2018-02-16T14:52:19.624Z,5.80
2018-02-16T14:54:47.095Z,6.90
2018-02-16T14:57:14.549Z,6.93
2018-02-16T14:59:42.009Z,7.00
2018-02-16T15:02:09.473Z,9.53
2018-02-16T15:04:36.936Z,10.43
2018-02-16T15:07:04.405Z,10.00
2018-02-16T15:09:31.861Z,10.33
2018-02-16T15:11:59.332Z,9.13
2018-02-16T15:14:26.798Z,10.20
2018-02-16T15:16:55.317Z,10.77
2018-02-16T15:19:22.831Z,9.70
2018-02-16T15:21:50.266Z,10.37
2018-02-16T15:24:17.726Z,9.90
2018-02-16T15:26:45.178Z,10.23
2018-02-16T15:29:12.663Z,9.73
2018-02-16T15:31:40.898Z,10.60
2018-02-16T15:34:08.353Z,8.93
2018-02-16T15:36:35.818Z,9.73
2018-02-16T15:39:04.040Z,11.67
2018-02-16T15:41:32.270Z,11.93
2018-02-16T15:43:59.743Z,11.83
2018-02-16T15:46:27.202Z,11.50
2018-02-16T15:48:54.680Z,12.07
2018-02-16T15:51:22.925Z,12.67
2018-02-16T15:53:51.153Z,11.97
2018-02-16T15:56:18.666Z,12.37
2018-02-16T15:58:46.120Z,13.87
2018-02-16T16:01:13.597Z,13.60
2018-02-16T16:03:41.822Z,13.50
2018-02-16T16:06:09.289Z,13.77
2018-02-16T16:08:36.754Z,13.43
2018-02-16T16:11:04.230Z,12.93
2018-02-16T16:13:31.681Z,13.87
2018-02-16T16:15:59.149Z,14.10
2018-02-16T16:18:26.626Z,14.87
2018-02-16T16:20:54.861Z,14.67
2018-02-16T16:23:23.094Z,14.73
2018-02-16T16:25:50.557Z,15.33
2018-02-16T16:28:18.042Z,16.90
2018-02-16T16:30:45.512Z,21.43
2018-02-16T16:33:12.998Z,17.73
2018-02-16T16:35:41.234Z,18.13
2018-02-16T16:38:08.698Z,17.43
2018-02-16T16:40:36.174Z,17.10
2018-02-16T16:43:03.646Z,19.33
2018-02-16T16:45:31.873Z,16.87
2018-02-16T16:47:59.346Z,17.17
2018-02-16T16:50:26.813Z,16.87
2018-02-16T16:52:54.290Z,18.40
2018-02-16T16:55:22.526Z,16.70
2018-02-16T16:57:50.272Z,18.00
2018-02-16T17:00:17.737Z,17.90
2018-02-16T17:02:45.198Z,17.57
2018-02-16T17:05:12.667Z,17.10
2018-02-16T17:07:40.137Z,16.30
2018-02-16T17:10:07.589Z,15.67
2018-02-16T17:12:35.063Z,16.77
2018-02-16T17:15:02.525Z,16.10
2018-02-16T17:17:29.986Z,16.03
2018-02-16T17:19:57.454Z,16.33
2018-02-16T17:22:25.684Z,15.47
2018-02-16T17:24:53.148Z,16.83
2018-02-16T17:27:20.613Z,16.00
2018-02-16T17:29:48.163Z,16.40
2018-02-16T17:32:15.643Z,16.87
2018-02-16T17:34:43.882Z,17.87
2018-02-16T17:37:11.354Z,21.73
2018-02-16T17:39:38.808Z,20.50
2018-02-16T17:42:06.283Z,22.37
2018-02-16T17:44:33.748Z,25.87
2018-02-16T17:47:01.203Z,20.10
2018-02-16T17:49:28.662Z,16.93
2018-02-16T17:51:56.120Z,17.40
2018-02-16T17:54:23.585Z,18.07
2018-02-16T17:56:51.045Z,19.17
2018-02-16T17:59:19.295Z,20.00
2018-02-16T18:01:46.759Z,20.47
2018-02-16T18:04:14.227Z,18.97
2018-02-16T18:06:41.704Z,19.77
2018-02-16T18:09:09.942Z,19.93
2018-02-16T18:11:37.409Z,20.43
2018-02-16T18:14:05.226Z,19.53
2018-02-16T18:16:32.685Z,20.20
2018-02-16T18:19:00.150Z,21.40
2018-02-16T18:21:27.618Z,22.43
2018-02-16T18:23:55.852Z,22.27
2018-02-16T18:26:24.086Z,22.33
2018-02-16T18:28:51.566Z,23.40
2018-02-16T18:31:19.063Z,23.60
2018-02-16T18:33:46.523Z,24.07
2018-02-16T18:36:13.997Z,24.67
2018-02-16T18:38:41.462Z,23.03
2018-02-16T18:41:08.933Z,22.13
2018-02-16T18:43:36.393Z,23.53
2018-02-16T18:46:03.850Z,23.40
2018-02-16T18:48:31.317Z,24.60
2018-02-16T18:50:58.782Z,21.87
2018-02-16T18:53:27.025Z,23.07
2018-02-16T18:55:54.516Z,22.83
2018-02-16T18:58:21.974Z,22.77
2018-02-16T19:00:50.201Z,22.23
2018-02-16T19:03:17.670Z,20.07
2018-02-16T19:05:45.141Z,21.90
2018-02-16T19:08:12.602Z,22.10
2018-02-16T19:10:40.063Z,20.80
2018-02-16T19:13:07.533Z,20.00
2018-02-16T19:15:35.766Z,18.73
2018-02-16T19:18:03.227Z,18.97
2018-02-16T19:20:30.696Z,19.90
2018-02-16T19:22:58.179Z,18.80
2018-02-16T19:25:25.882Z,19.73
2018-02-16T19:27:53.354Z,18.67
2018-02-16T19:30:20.826Z,19.03
2018-02-16T19:32:48.315Z,18.67
2018-02-16T19:35:15.774Z,18.60
2018-02-16T19:37:44.293Z,19.70
2018-02-16T19:40:11.759Z,19.83
2018-02-16T19:42:39.234Z,19.60
2018-02-16T19:45:06.700Z,20.37
2018-02-16T19:47:34.158Z,21.93
2018-02-16T19:50:01.629Z,23.10
2018-02-16T19:52:29.087Z,22.63
2018-02-16T19:54:56.557Z,25.20
2018-02-16T19:57:24.777Z,23.77
2018-02-16T19:59:52.255Z,22.70
2018-02-16T20:02:20.492Z,25.53
2018-02-16T20:04:47.954Z,25.10
2018-02-16T20:07:15.441Z,25.37
2018-02-16T20:09:42.906Z,25.17
2018-02-16T20:12:10.400Z,25.03
2018-02-16T20:14:38.629Z,23.90
2018-02-16T20:17:06.093Z,25.03
2018-02-16T20:19:33.563Z,25.27
2018-02-16T20:22:01.022Z,24.50
2018-02-16T20:24:28.491Z,24.57
2018-02-16T20:26:55.959Z,27.63
2018-02-16T20:29:23.421Z,26.03
2018-02-16T20:31:51.649Z,27.57
2018-02-16T20:34:19.119Z,25.63
2018-02-16T20:36:46.589Z,26.03
2018-02-16T20:39:14.056Z,22.93
2018-02-16T20:41:42.300Z,23.60
2018-02-16T20:44:09.770Z,23.73
2018-02-16T20:46:37.230Z,22.57
2018-02-16T20:49:04.698Z,23.23
2018-02-16T20:51:32.158Z,23.00
2018-02-16T20:53:59.636Z,24.53
2018-02-16T20:56:27.868Z,23.10
2018-02-16T20:58:56.173Z,22.97
2018-02-16T21:01:24.410Z,22.60
2018-02-16T21:03:51.881Z,24.33
2018-02-16T21:06:19.353Z,25.60
2018-02-16T21:08:46.819Z,25.70
2018-02-16T21:11:15.059Z,24.53
2018-02-16T21:13:42.526Z,25.20
2018-02-16T21:16:09.994Z,23.07
2018-02-16T21:18:37.462Z,22.73
2018-02-16T21:21:04.926Z,25.87
2018-02-16T21:23:33.153Z,24.00
2018-02-16T21:26:00.622Z,25.07
2018-02-16T21:28:28.083Z,22.50
2018-02-16T21:30:55.550Z,25.53
2018-02-16T21:33:23.019Z,22.80
2018-02-16T21:35:50.500Z,21.53
2018-02-16T21:38:18.727Z,21.17
2018-02-16T21:40:46.178Z,26.00
2018-02-16T21:43:13.651Z,27.63
2018-02-16T21:45:41.336Z,29.50
2018-02-16T21:48:08.797Z,27.17
2018-02-16T21:50:37.023Z,25.90
2018-02-16T21:53:04.493Z,26.43
2018-02-16T21:55:31.950Z,26.07
2018-02-16T21:57:59.414Z,25.40
2018-02-16T22:00:26.892Z,25.73
2018-02-16T22:02:54.351Z,24.70
2018-02-16T22:05:21.818Z,26.17
2018-02-16T22:07:49.283Z,24.20
2018-02-16T22:10:17.518Z,24.17
2018-02-16T22:12:44.993Z,24.87
2018-02-16T22:15:12.450Z,24.23
2018-02-16T22:17:40.691Z,22.10
2018-02-16T22:20:08.159Z,22.07
2018-02-16T22:22:36.385Z,22.57
2018-02-16T22:25:03.851Z,25.03
2018-02-16T22:27:31.310Z,22.77
2018-02-16T22:29:58.778Z,23.67
2018-02-16T22:32:26.239Z,24.50
2018-02-16T22:34:53.713Z,23.40
2018-02-16T22:37:21.178Z,24.67
2018-02-16T22:39:48.677Z,24.27
2018-02-16T22:42:16.114Z,26.37
2018-02-16T22:44:43.593Z,24.23
2018-02-16T22:47:11.836Z,23.53
2018-02-16T22:49:39.306Z,24.10
2018-02-16T22:52:06.771Z,26.57
2018-02-16T22:54:35.019Z,25.43
2018-02-16T22:57:02.490Z,26.60
2018-02-16T22:59:29.962Z,27.10
2018-02-16T23:01:58.192Z,24.20
2018-02-16T23:04:25.659Z,26.63
2018-02-16T23:06:53.154Z,22.83
2018-02-16T23:09:21.382Z,24.50
2018-02-16T23:11:48.858Z,23.00
2018-02-16T23:14:16.322Z,24.33
2018-02-16T23:16:43.793Z,25.00
2018-02-16T23:19:12.041Z,25.47
2018-02-16T23:21:39.501Z,24.20
2018-02-16T23:24:07.006Z,28.30
2018-02-16T23:26:35.236Z,27.60
2018-02-16T23:29:02.708Z,26.13
2018-02-16T23:31:30.169Z,26.13
2018-02-16T23:33:57.647Z,23.97
2018-02-16T23:36:25.933Z,23.33
2018-02-16T23:38:53.353Z,24.10
2018-02-16T23:41:20.860Z,22.43
2018-02-16T23:43:48.266Z,23.77
2018-02-16T23:46:15.734Z,24.60
2018-02-16T23:48:43.202Z,23.70
2018-02-16T23:51:10.667Z,22.43
2018-02-16T23:53:38.154Z,24.60
2018-02-16T23:56:05.623Z,22.03
2018-02-16T23:58:33.858Z,23.03
